createdAt,value
2023-05-31T00:01:47.130Z,60.70
2023-05-31T00:04:14.253Z,60.60
2023-05-31T00:06:41.244Z,60.70
2023-05-31T00:09:08.274Z,60.40
2023-05-31T00:11:35.301Z,60.40
2023-05-31T00:14:05.370Z,60.20
2023-05-31T00:17:03.350Z,60.30
2023-05-31T00:19:19.745Z,60.20
2023-05-31T00:21:50.106Z,60.20
2023-05-31T00:24:17.848Z,60.30
2023-05-31T00:26:44.893Z,60.30
2023-05-31T00:29:11.932Z,60.50
2023-05-31T00:31:41.665Z,60.50
2023-05-31T00:34:11.431Z,60.90
2023-05-31T00:36:38.978Z,60.90
2023-05-31T00:39:05.989Z,60.90
2023-05-31T00:41:32.984Z,61.10
2023-05-31T00:44:00.038Z,61.20
2023-05-31T00:46:32.717Z,61.20
2023-05-31T00:49:01.071Z,61.90
2023-05-31T00:51:30.841Z,61.60
2023-05-31T00:53:59.797Z,61.70
2023-05-31T00:56:27.272Z,61.80
2023-05-31T00:58:57.901Z,62.00
2023-05-31T01:01:34.652Z,62.10
2023-05-31T01:04:03.404Z,62.30
2023-05-31T01:06:33.566Z,62.30
2023-05-31T01:09:06.256Z,62.60
2023-05-31T01:11:49.243Z,62.80
2023-05-31T01:14:47.262Z,63.00
2023-05-31T01:17:24.123Z,63.00
2023-05-31T01:19:55.808Z,63.10
2023-05-31T01:22:45.415Z,63.10
2023-05-31T01:25:14.047Z,63.80
2023-05-31T01:27:43.273Z,63.20
2023-05-31T01:30:11.536Z,63.20
2023-05-31T01:32:39.891Z,63.10
2023-05-31T01:35:07.286Z,63.00
2023-05-31T01:37:34.262Z,62.90
2023-05-31T01:40:01.468Z,63.00
2023-05-31T01:42:30.018Z,63.20
2023-05-31T01:44:58.969Z,63.40
2023-05-31T01:47:26.559Z,63.40
2023-05-31T01:49:54.456Z,63.40
2023-05-31T01:52:22.794Z,63.30
2023-05-31T01:54:49.936Z,63.80
2023-05-31T01:57:18.464Z,63.30
2023-05-31T01:59:47.733Z,63.30
2023-05-31T02:02:14.849Z,64.10
2023-05-31T02:04:41.933Z,63.60
2023-05-31T02:07:10.853Z,63.50
2023-05-31T02:09:38.006Z,63.90
2023-05-31T02:12:06.512Z,63.80
2023-05-31T02:14:33.593Z,63.40
2023-05-31T02:17:00.623Z,63.50
2023-05-31T02:19:27.709Z,63.60
2023-05-31T02:21:54.788Z,63.20
2023-05-31T02:24:21.832Z,63.10
2023-05-31T02:26:48.828Z,63.10
2023-05-31T02:29:15.947Z,63.20
2023-05-31T02:31:43.033Z,63.00
2023-05-31T02:34:10.802Z,63.20
2023-05-31T02:36:37.828Z,63.20
2023-05-31T02:39:05.875Z,63.20
2023-05-31T02:41:34.049Z,63.40
2023-05-31T02:44:01.142Z,63.30
2023-05-31T02:46:28.218Z,63.40
2023-05-31T02:48:55.463Z,63.40
2023-05-31T02:51:22.562Z,63.30
2023-05-31T02:54:12.673Z,63.40
2023-05-31T02:56:40.071Z,63.40
2023-05-31T02:59:27.439Z,63.40
2023-05-31T03:02:04.766Z,63.50
2023-05-31T03:05:05.588Z,63.60
2023-05-31T03:07:34.460Z,63.90
2023-05-31T03:10:02.262Z,64.00
2023-05-31T03:12:29.867Z,63.80
2023-05-31T03:14:57.186Z,64.00
2023-05-31T03:17:24.349Z,64.10
2023-05-31T03:19:51.519Z,64.10
2023-05-31T03:22:18.925Z,64.30
2023-05-31T03:24:46.176Z,64.40
2023-05-31T03:27:14.842Z,64.40
2023-05-31T03:29:43.624Z,64.50
2023-05-31T03:32:10.706Z,64.60
2023-05-31T03:34:38.620Z,64.60
2023-05-31T03:37:06.411Z,64.30
2023-05-31T03:39:40.900Z,64.20
2023-05-31T03:42:11.468Z,63.50
2023-05-31T03:44:38.801Z,62.80
2023-05-31T03:47:06.634Z,62.40
2023-05-31T03:49:33.698Z,62.30
2023-05-31T03:52:01.438Z,61.10
2023-05-31T03:54:29.399Z,60.40
2023-05-31T03:56:56.428Z,59.60
2023-05-31T03:59:23.665Z,58.70
2023-05-31T04:01:50.935Z,58.00
2023-05-31T04:04:18.481Z,57.30
2023-05-31T04:06:45.649Z,56.30
2023-05-31T04:09:13.098Z,56.00
2023-05-31T04:11:40.283Z,54.90
2023-05-31T04:14:07.413Z,54.40
2023-05-31T04:16:34.648Z,54.00
2023-05-31T04:19:01.837Z,53.50
2023-05-31T04:21:29.178Z,53.10
2023-05-31T04:23:57.519Z,52.20
2023-05-31T04:26:24.959Z,51.10
2023-05-31T04:28:55.918Z,51.10
2023-05-31T04:31:35.646Z,50.70
2023-05-31T04:34:11.656Z,50.10
2023-05-31T04:36:40.413Z,48.70
2023-05-31T04:39:13.836Z,48.30
2023-05-31T04:41:41.101Z,47.90
2023-05-31T04:44:08.502Z,47.60
2023-05-31T04:46:35.711Z,47.70
2023-05-31T04:49:05.798Z,47.30
2023-05-31T04:51:34.070Z,47.00
2023-05-31T04:54:02.137Z,47.00
2023-05-31T04:56:29.742Z,46.00
2023-05-31T04:58:57.231Z,46.10
2023-05-31T05:01:24.460Z,44.10
2023-05-31T05:04:01.531Z,44.70
2023-05-31T05:06:30.223Z,44.80
2023-05-31T05:08:58.418Z,44.00
2023-05-31T05:11:27.439Z,41.60
2023-05-31T05:13:55.713Z,41.00
2023-05-31T05:16:25.950Z,40.70
2023-05-31T05:18:53.129Z,40.70
2023-05-31T05:21:20.375Z,40.50
2023-05-31T05:23:48.238Z,40.80
2023-05-31T05:26:15.887Z,41.10
2023-05-31T05:28:42.983Z,40.60
2023-05-31T05:31:11.295Z,41.40
2023-05-31T05:33:43.693Z,40.30
2023-05-31T05:36:13.462Z,39.90
2023-05-31T05:38:47.347Z,39.90
2023-05-31T05:41:14.455Z,39.80
2023-05-31T05:43:43.649Z,39.70
2023-05-31T05:46:14.400Z,39.70
2023-05-31T05:48:41.612Z,39.60
2023-05-31T05:51:10.670Z,39.30
2023-05-31T05:53:38.646Z,39.80
2023-05-31T05:56:06.151Z,39.80
2023-05-31T05:58:43.180Z,40.40
2023-05-31T06:01:30.202Z,41.30
2023-05-31T06:03:58.187Z,40.70
2023-05-31T06:06:25.900Z,40.10
2023-05-31T06:08:53.010Z,39.90
2023-05-31T06:11:20.592Z,40.60
2023-05-31T06:13:47.757Z,40.90
2023-05-31T06:16:17.678Z,40.10
2023-05-31T06:18:45.669Z,40.20
2023-05-31T06:21:13.047Z,39.80
2023-05-31T06:23:40.182Z,39.50
2023-05-31T06:26:07.979Z,40.40
2023-05-31T06:28:37.858Z,39.70
2023-05-31T06:31:10.566Z,40.50
2023-05-31T06:33:37.643Z,40.40
2023-05-31T06:36:05.606Z,40.90
2023-05-31T06:38:33.169Z,40.50
2023-05-31T06:41:00.673Z,41.00
2023-05-31T06:43:27.857Z,42.50
2023-05-31T06:46:15.142Z,43.50
2023-05-31T06:49:11.955Z,45.50
2023-05-31T06:51:39.863Z,46.60
2023-05-31T06:54:25.842Z,46.10
2023-05-31T06:56:53.787Z,47.50
2023-05-31T06:59:21.118Z,48.90
2023-05-31T07:01:48.254Z,50.10
2023-05-31T07:04:15.841Z,49.90
2023-05-31T07:06:43.518Z,49.70
2023-05-31T07:09:10.584Z,49.60
2023-05-31T07:11:57.746Z,50.10
2023-05-31T07:14:30.066Z,50.80
2023-05-31T07:16:57.198Z,51.20
2023-05-31T07:19:24.340Z,50.90
2023-05-31T07:21:51.334Z,51.40
2023-05-31T07:24:18.336Z,53.10
2023-05-31T07:26:45.377Z,53.40
2023-05-31T07:29:13.359Z,51.70
2023-05-31T07:31:40.395Z,51.80
2023-05-31T07:34:07.838Z,52.90
2023-05-31T07:36:34.943Z,52.30
2023-05-31T07:39:02.032Z,53.10
2023-05-31T07:41:29.271Z,53.80
2023-05-31T07:43:56.505Z,53.10
2023-05-31T07:46:23.901Z,53.90
2023-05-31T07:48:51.237Z,52.50
2023-05-31T07:51:18.509Z,52.20
2023-05-31T07:53:45.984Z,53.20
2023-05-31T07:56:13.111Z,51.50
2023-05-31T07:58:40.298Z,51.80
2023-05-31T08:01:07.396Z,52.00
2023-05-31T08:03:34.559Z,51.10
2023-05-31T08:06:01.669Z,50.80
2023-05-31T08:08:28.843Z,53.00
2023-05-31T08:10:56.131Z,51.80
2023-05-31T08:13:27.148Z,51.20
2023-05-31T08:15:54.452Z,51.70
2023-05-31T08:18:21.532Z,50.60
2023-05-31T08:20:48.640Z,50.20
2023-05-31T08:23:22.954Z,50.10
2023-05-31T08:25:52.458Z,51.20
2023-05-31T08:28:19.530Z,50.70
2023-05-31T08:30:46.774Z,52.00
2023-05-31T08:33:14.099Z,52.00
2023-05-31T08:35:42.173Z,49.60
2023-05-31T08:38:09.398Z,50.20
2023-05-31T08:40:36.842Z,49.00
2023-05-31T08:43:17.158Z,49.60
2023-05-31T08:45:44.925Z,50.40
2023-05-31T08:48:20.742Z,51.40
2023-05-31T08:50:48.782Z,49.20
2023-05-31T08:53:18.319Z,49.90
2023-05-31T08:55:49.827Z,50.10
2023-05-31T08:58:17.808Z,51.70
2023-05-31T09:00:46.391Z,48.90
2023-05-31T09:03:14.083Z,48.70
2023-05-31T09:05:41.205Z,49.40
2023-05-31T09:08:08.705Z,49.30
2023-05-31T09:10:35.735Z,48.90
2023-05-31T09:13:04.322Z,47.90
2023-05-31T09:15:32.630Z,48.20
2023-05-31T09:18:14.726Z,47.80
2023-05-31T09:20:41.923Z,48.80
2023-05-31T09:23:12.017Z,48.30
2023-05-31T09:25:53.556Z,49.20
2023-05-31T09:28:22.201Z,50.10
2023-05-31T09:31:06.752Z,48.20
2023-05-31T09:33:44.890Z,48.70
2023-05-31T09:36:14.129Z,48.80
2023-05-31T09:38:41.781Z,48.40
2023-05-31T09:41:15.897Z,48.90
2023-05-31T09:43:44.396Z,48.50
2023-05-31T09:46:16.781Z,45.80
2023-05-31T09:48:45.373Z,46.60
2023-05-31T09:51:13.707Z,45.90
2023-05-31T09:53:44.444Z,46.00
2023-05-31T09:56:17.966Z,46.70
2023-05-31T09:58:46.321Z,47.30
2023-05-31T10:01:13.373Z,45.20
2023-05-31T10:03:41.476Z,45.80
2023-05-31T10:06:09.890Z,43.70
2023-05-31T10:08:38.159Z,45.00
2023-05-31T10:11:05.874Z,45.50
2023-05-31T10:13:33.538Z,44.30
2023-05-31T10:16:07.147Z,45.10
2023-05-31T10:18:37.752Z,44.20
2023-05-31T10:21:11.800Z,43.20
2023-05-31T10:23:45.532Z,45.40
2023-05-31T10:26:19.947Z,44.30
2023-05-31T10:28:57.753Z,44.60
2023-05-31T10:31:29.903Z,45.70
2023-05-31T10:34:19.612Z,46.30
2023-05-31T10:36:46.906Z,45.10
2023-05-31T10:39:32.096Z,45.60
2023-05-31T10:42:18.509Z,45.30
2023-05-31T10:44:59.810Z,43.10
2023-05-31T10:47:35.057Z,43.60
2023-05-31T10:50:04.890Z,42.70
2023-05-31T10:52:32.365Z,46.00
2023-05-31T10:55:19.835Z,45.80
2023-05-31T10:57:57.241Z,45.20
2023-05-31T11:00:25.188Z,43.10
2023-05-31T11:02:59.928Z,43.10
2023-05-31T11:05:28.868Z,44.30
2023-05-31T11:07:58.618Z,46.10
2023-05-31T11:10:30.100Z,44.40
2023-05-31T11:12:58.904Z,44.00
2023-05-31T11:15:41.309Z,44.70
2023-05-31T11:18:10.657Z,44.00
2023-05-31T11:20:37.993Z,45.60
2023-05-31T11:23:20.438Z,44.20
2023-05-31T11:26:10.239Z,44.20
2023-05-31T11:29:03.082Z,46.40
2023-05-31T11:32:00.504Z,44.80
2023-05-31T11:34:34.521Z,44.70
2023-05-31T11:37:04.528Z,43.50
2023-05-31T11:39:32.176Z,44.90
2023-05-31T11:41:59.750Z,44.30
2023-05-31T11:44:32.759Z,45.20
2023-05-31T11:47:07.043Z,42.80
2023-05-31T11:49:35.149Z,45.10
2023-05-31T11:52:04.336Z,45.40
2023-05-31T11:54:34.020Z,43.70
2023-05-31T11:57:04.005Z,45.20
2023-05-31T11:59:38.537Z,45.20
2023-05-31T12:02:07.270Z,44.70
2023-05-31T12:04:41.457Z,45.90
2023-05-31T12:07:16.753Z,44.70
2023-05-31T12:09:44.074Z,43.30
2023-05-31T12:12:13.247Z,43.60
2023-05-31T12:14:53.757Z,43.40
2023-05-31T12:17:21.345Z,44.40
2023-05-31T12:19:49.756Z,45.30
2023-05-31T12:22:16.856Z,44.60
2023-05-31T12:24:54.905Z,44.40
2023-05-31T12:27:33.544Z,44.00
2023-05-31T12:30:19.055Z,43.20
2023-05-31T12:35:42.472Z,44.30
2023-05-31T12:38:10.044Z,44.90
2023-05-31T12:39:05.511Z,45.00
2023-05-31T12:40:43.134Z,43.90
2023-05-31T12:43:13.958Z,43.60
2023-05-31T12:45:42.719Z,45.10
2023-05-31T12:48:14.104Z,45.00
2023-05-31T12:50:47.818Z,43.50
2023-05-31T12:53:16.318Z,44.50
2023-05-31T12:55:43.973Z,45.10
2023-05-31T12:58:11.752Z,44.50
2023-05-31T13:00:38.976Z,44.90
2023-05-31T13:03:08.191Z,45.70
2023-05-31T13:05:35.438Z,44.10
2023-05-31T13:08:02.542Z,45.90
2023-05-31T13:10:29.596Z,46.10
2023-05-31T13:12:56.853Z,45.80
2023-05-31T13:15:24.224Z,47.60
2023-05-31T13:17:52.953Z,48.10
2023-05-31T13:20:22.926Z,45.30
2023-05-31T13:22:53.073Z,46.00
2023-05-31T13:25:20.141Z,46.50
2023-05-31T13:27:47.174Z,47.10
2023-05-31T13:30:14.730Z,47.70
2023-05-31T13:32:41.874Z,47.50
2023-05-31T13:35:11.158Z,48.10
2023-05-31T13:37:38.208Z,44.60
2023-05-31T13:40:05.918Z,44.10
2023-05-31T13:42:33.177Z,44.40
2023-05-31T13:45:02.822Z,45.20
2023-05-31T13:47:29.976Z,45.50
2023-05-31T13:49:57.238Z,44.80
2023-05-31T13:52:24.697Z,45.80
2023-05-31T13:54:51.693Z,47.40
2023-05-31T13:57:18.779Z,47.70
2023-05-31T13:59:45.796Z,47.10
2023-05-31T14:02:12.853Z,47.80
2023-05-31T14:04:39.859Z,47.30
2023-05-31T14:07:07.213Z,46.70
2023-05-31T14:09:34.726Z,44.80
2023-05-31T14:12:01.716Z,44.80
2023-05-31T14:14:28.783Z,45.70
2023-05-31T14:16:55.877Z,44.70
2023-05-31T14:19:22.992Z,46.50
2023-05-31T14:21:50.028Z,45.10
2023-05-31T14:24:17.263Z,43.70
2023-05-31T14:26:44.392Z,46.20
2023-05-31T14:29:11.793Z,46.20
2023-05-31T14:31:38.943Z,46.50
2023-05-31T14:34:06.219Z,46.80
2023-05-31T14:36:33.708Z,46.20
2023-05-31T14:39:01.578Z,44.70
2023-05-31T14:41:28.747Z,44.70
2023-05-31T14:43:55.920Z,45.50
2023-05-31T14:46:23.410Z,46.50
2023-05-31T14:48:50.405Z,45.30
2023-05-31T14:51:17.410Z,45.10
2023-05-31T14:53:44.402Z,45.60
2023-05-31T14:58:41.761Z,45.10
2023-05-31T15:01:08.720Z,43.90
2023-05-31T15:03:35.776Z,44.50
2023-05-31T15:06:02.821Z,44.80
2023-05-31T15:08:32.726Z,43.90
2023-05-31T15:11:01.528Z,44.90
2023-05-31T15:13:28.851Z,45.10
2023-05-31T15:15:56.616Z,43.70
2023-05-31T15:18:23.801Z,45.10
2023-05-31T15:20:51.746Z,46.80
2023-05-31T15:23:19.335Z,45.80
2023-05-31T15:25:46.363Z,46.10
2023-05-31T15:28:13.483Z,45.20
2023-05-31T15:30:40.900Z,44.90
2023-05-31T15:33:08.109Z,45.30
2023-05-31T15:35:35.280Z,44.90
2023-05-31T15:38:02.888Z,44.70
2023-05-31T15:40:30.258Z,45.80
2023-05-31T15:42:57.344Z,45.30
2023-05-31T15:45:24.494Z,44.00
2023-05-31T15:47:51.641Z,44.80
2023-05-31T15:50:19.036Z,44.90
2023-05-31T15:52:46.070Z,44.50
2023-05-31T15:55:13.075Z,45.20
2023-05-31T15:57:40.093Z,45.80
2023-05-31T16:00:07.875Z,46.10
2023-05-31T16:02:40.855Z,45.80
2023-05-31T16:05:10.073Z,46.00
2023-05-31T16:07:37.139Z,46.80
2023-05-31T16:10:05.159Z,46.10
2023-05-31T16:12:32.112Z,46.10
2023-05-31T16:15:00.683Z,46.30
2023-05-31T16:17:28.175Z,46.00
2023-05-31T16:19:55.559Z,45.80
2023-05-31T16:22:22.896Z,45.00
2023-05-31T16:24:51.000Z,45.00
2023-05-31T16:27:18.888Z,45.50
2023-05-31T16:29:46.366Z,43.80
2023-05-31T16:32:13.537Z,44.50
2023-05-31T16:34:40.847Z,42.90
2023-05-31T16:37:10.068Z,43.00
2023-05-31T16:39:39.003Z,43.90
2023-05-31T16:42:07.456Z,44.50
2023-05-31T16:44:36.068Z,44.50
2023-05-31T16:47:03.693Z,44.10
2023-05-31T16:49:31.153Z,44.30
2023-05-31T16:51:59.144Z,44.00
2023-05-31T16:54:26.137Z,45.10
2023-05-31T16:56:53.247Z,45.00
2023-05-31T16:59:20.199Z,44.60
2023-05-31T17:01:47.286Z,44.50
2023-05-31T17:04:14.656Z,43.90
2023-05-31T17:06:41.914Z,45.10
2023-05-31T17:09:08.965Z,44.90
2023-05-31T17:11:37.926Z,45.10
2023-05-31T17:14:04.986Z,45.30
2023-05-31T17:16:32.412Z,45.80
2023-05-31T17:19:00.168Z,46.50
2023-05-31T17:21:30.474Z,48.70
2023-05-31T17:23:57.622Z,48.60
2023-05-31T17:26:24.734Z,49.20
2023-05-31T17:28:51.744Z,48.00
2023-05-31T17:31:18.897Z,47.40
2023-05-31T17:33:46.022Z,47.60
2023-05-31T17:36:13.492Z,47.60
2023-05-31T17:38:40.512Z,48.50
2023-05-31T17:41:07.583Z,48.70
2023-05-31T17:43:36.425Z,49.50
2023-05-31T17:46:03.753Z,49.70
2023-05-31T17:48:31.358Z,50.70
2023-05-31T17:50:58.577Z,50.40
2023-05-31T17:53:26.108Z,50.90
2023-05-31T17:55:53.233Z,50.90
2023-05-31T17:58:20.735Z,51.20
2023-05-31T18:00:47.696Z,51.40
2023-05-31T18:03:15.175Z,51.20
2023-05-31T18:05:42.262Z,51.80
2023-05-31T18:08:09.230Z,51.20
2023-05-31T18:10:36.586Z,51.60
2023-05-31T18:13:03.697Z,51.60
2023-05-31T18:15:30.778Z,52.00
2023-05-31T18:17:57.891Z,52.00
2023-05-31T18:20:24.973Z,52.30
2023-05-31T18:22:51.966Z,52.50
2023-05-31T18:25:19.045Z,52.50
2023-05-31T18:27:46.103Z,52.80
2023-05-31T18:30:13.950Z,53.10
2023-05-31T18:32:41.502Z,53.30
2023-05-31T18:35:08.894Z,54.00
2023-05-31T18:37:35.897Z,53.70
2023-05-31T18:40:03.016Z,54.00
2023-05-31T18:42:30.078Z,54.20
2023-05-31T18:44:58.921Z,54.30
2023-05-31T18:47:28.555Z,54.60
2023-05-31T18:49:55.712Z,54.70
2023-05-31T18:52:23.003Z,54.90
2023-05-31T18:54:50.001Z,55.30
2023-05-31T18:57:17.008Z,55.40
2023-05-31T18:59:44.001Z,55.60
2023-05-31T19:02:11.568Z,55.70
2023-05-31T19:04:38.663Z,55.90
2023-05-31T19:07:07.274Z,56.30
2023-05-31T19:09:34.932Z,56.50
2023-05-31T19:12:02.080Z,57.00
2023-05-31T19:14:29.174Z,57.20
2023-05-31T19:16:56.346Z,57.50
2023-05-31T19:19:23.772Z,57.70
2023-05-31T19:21:50.832Z,58.00
2023-05-31T19:24:17.867Z,58.60
2023-05-31T19:26:44.977Z,58.70
2023-05-31T19:29:12.354Z,58.80
2023-05-31T19:31:39.535Z,59.10
2023-05-31T19:34:06.818Z,58.90
2023-05-31T19:36:33.833Z,59.10
2023-05-31T19:39:04.420Z,59.30
2023-05-31T19:41:31.485Z,59.30
2023-05-31T19:43:58.488Z,59.70
2023-05-31T19:46:25.968Z,59.80
2023-05-31T19:48:53.860Z,59.90
2023-05-31T19:51:21.092Z,60.10
2023-05-31T19:53:48.105Z,60.00
2023-05-31T19:56:15.482Z,60.20
2023-05-31T19:58:42.530Z,60.20
2023-05-31T20:01:10.984Z,60.90
2023-05-31T20:03:39.927Z,59.60
2023-05-31T20:06:07.291Z,59.60
2023-05-31T20:08:34.708Z,59.90
2023-05-31T20:11:01.718Z,60.10
2023-05-31T20:13:28.894Z,60.40
2023-05-31T20:15:56.098Z,60.70
2023-05-31T20:18:24.108Z,60.80
2023-05-31T20:20:52.150Z,61.00
2023-05-31T20:23:19.382Z,61.30
2023-05-31T20:25:46.791Z,61.30
2023-05-31T20:28:13.949Z,61.50
2023-05-31T20:30:41.059Z,61.70
2023-05-31T20:33:08.239Z,61.80
2023-05-31T20:35:35.334Z,62.00
2023-05-31T20:38:02.937Z,62.20
2023-05-31T20:40:29.989Z,62.30
2023-05-31T20:42:56.983Z,62.30
2023-05-31T20:45:24.075Z,62.50
2023-05-31T20:47:51.580Z,62.80
2023-05-31T20:50:20.203Z,62.80
2023-05-31T20:52:47.787Z,62.90
2023-05-31T20:55:15.211Z,63.00
2023-05-31T20:57:43.107Z,63.10
2023-05-31T21:00:11.392Z,62.90
2023-05-31T21:02:38.517Z,62.90
2023-05-31T21:05:06.224Z,62.90
2023-05-31T21:07:33.308Z,63.10
2023-05-31T21:10:00.348Z,63.10
2023-05-31T21:12:27.364Z,63.20
2023-05-31T21:14:54.536Z,63.50
2023-05-31T21:17:21.757Z,63.60
2023-05-31T21:19:48.942Z,63.70
2023-05-31T21:22:16.125Z,63.80
2023-05-31T21:24:43.152Z,64.00
2023-05-31T21:27:10.209Z,64.00
2023-05-31T21:29:37.193Z,64.20
2023-05-31T21:32:04.978Z,64.30
2023-05-31T21:34:32.302Z,64.40
2023-05-31T21:36:59.382Z,64.50
2023-05-31T21:39:26.401Z,64.60
2023-05-31T21:41:54.442Z,64.60
2023-05-31T21:44:21.700Z,64.70
2023-05-31T21:46:48.891Z,64.90
2023-05-31T21:49:16.062Z,65.00
2023-05-31T21:51:43.258Z,65.10
2023-05-31T21:54:10.267Z,65.20
2023-05-31T21:56:37.762Z,65.20
2023-05-31T21:59:04.777Z,65.40
2023-05-31T22:01:31.952Z,65.50
2023-05-31T22:04:00.257Z,65.60
2023-05-31T22:06:28.673Z,65.90
2023-05-31T22:08:57.527Z,66.00
2023-05-31T22:11:24.715Z,66.20
2023-05-31T22:13:53.681Z,66.40
2023-05-31T22:16:26.424Z,66.50
2023-05-31T22:18:53.610Z,66.60
2023-05-31T22:21:24.614Z,66.80
2023-05-31T22:23:52.905Z,67.00
2023-05-31T22:26:21.544Z,67.30
2023-05-31T22:28:52.408Z,67.40
2023-05-31T22:31:20.129Z,67.60
2023-05-31T22:33:48.681Z,67.90
2023-05-31T22:36:16.862Z,68.00
2023-05-31T22:38:44.055Z,68.10
2023-05-31T22:41:11.502Z,68.40
2023-05-31T22:43:38.577Z,68.40
2023-05-31T22:46:05.936Z,68.60
2023-05-31T22:48:37.571Z,68.80
2023-05-31T22:51:07.538Z,68.90
2023-05-31T22:53:34.616Z,69.00
2023-05-31T22:56:01.664Z,69.10
2023-05-31T22:58:28.750Z,69.30
2023-05-31T23:00:55.962Z,69.40
2023-05-31T23:03:23.205Z,69.60
2023-05-31T23:05:52.481Z,69.80
2023-05-31T23:08:21.048Z,70.00
2023-05-31T23:10:49.530Z,70.20
2023-05-31T23:13:18.518Z,70.40
2023-05-31T23:15:47.375Z,70.50
2023-05-31T23:18:14.824Z,70.60
2023-05-31T23:20:42.680Z,70.50
2023-05-31T23:23:09.743Z,70.50
2023-05-31T23:25:36.838Z,70.40
2023-05-31T23:28:03.935Z,70.40
2023-05-31T23:30:31.053Z,70.30
2023-05-31T23:32:58.149Z,70.40
2023-05-31T23:35:25.275Z,70.60
2023-05-31T23:37:53.105Z,70.60
2023-05-31T23:40:20.403Z,70.70
2023-05-31T23:42:47.748Z,70.80
2023-05-31T23:45:14.994Z,71.00
2023-05-31T23:47:42.565Z,71.20
2023-05-31T23:50:10.126Z,71.50
2023-05-31T23:52:37.621Z,71.60
2023-05-31T23:55:05.849Z,71.60
2023-05-31T23:57:33.925Z,71.70
